DeKalb, Illinois
Current Conditions -  °F | °C
As of 7:15 PM on Saturday 25 Oct 2014 (Local Time) from KDKB Reporting Station
Clear Clear  
Wind Chill: 57°   Ceiling: Unl
Heat Index: 57°   Visibility: 10mi
Dew Point: 32°   Wind: 9mph
Humidity: 38%   Direction: 290°WNW
Pressure: 29.97"   Gusts: NA
Location:  41.93°N, 88.75°W
Report Text: KDKB 260015Z AUTO 29008KT 10SM CLR 14/00 A2997 RMK AO2 T01381002
Loading
Personal Weather Stations






























Interactive Weather Map
Tropical Storm Tracking
New forecast layout! Learn more

10-Day Weather Forecast

Advertisements
Track Severe Weather on mobile